createdAt,value
2023-02-27T00:10:01.444Z,-0.57
2023-02-27T00:20:18.170Z,-0.68
2023-02-27T00:30:31.160Z,-0.77
2023-02-27T00:40:55.937Z,-0.84
2023-02-27T00:52:45.451Z,-0.97
2023-02-27T01:02:08.883Z,-1.04
2023-02-27T01:12:32.558Z,-1.11
2023-02-27T01:22:37.245Z,-1.18
2023-02-27T01:32:46.627Z,-1.27
2023-02-27T01:43:10.717Z,-1.35
2023-02-27T01:53:41.560Z,-1.44
2023-02-27T02:04:03.316Z,-1.51
2023-02-27T02:14:11.045Z,-1.55
2023-02-27T02:25:21.816Z,-1.64
2023-02-27T02:35:55.784Z,-1.70
2023-02-27T02:47:05.493Z,-1.76
2023-02-27T02:57:10.879Z,-1.83
2023-02-27T03:07:21.847Z,-1.91
2023-02-27T03:17:39.798Z,-2.00
2023-02-27T03:28:19.369Z,-2.09
2023-02-27T03:39:21.871Z,-2.12
2023-02-27T03:50:06.722Z,-2.19
2023-02-27T04:00:24.617Z,-2.22
2023-02-27T04:11:29.494Z,-2.27
2023-02-27T04:22:37.055Z,-2.34
2023-02-27T04:32:30.575Z,-2.37
2023-02-27T04:45:01.155Z,-2.41
2023-02-27T04:54:00.008Z,-2.44
2023-02-27T05:05:01.169Z,-2.46
2023-02-27T05:15:25.443Z,-2.47
2023-02-27T05:25:41.971Z,-2.55
2023-02-27T05:35:58.179Z,-2.53
2023-02-27T05:46:22.155Z,-2.55
2023-02-27T05:56:45.539Z,-2.54
2023-02-27T06:07:08.469Z,-2.50
2023-02-27T06:17:16.589Z,-2.49
2023-02-27T06:27:27.751Z,-2.44
2023-02-27T06:37:42.488Z,-2.45
2023-02-27T06:48:19.866Z,-2.39
2023-02-27T06:58:39.215Z,-2.35
2023-02-27T07:09:00.897Z,-2.33
2023-02-27T07:19:27.638Z,-2.31
2023-02-27T07:29:37.913Z,-2.29
2023-02-27T07:39:53.489Z,-2.24
2023-02-27T07:49:58.023Z,-2.25
2023-02-27T08:02:14.853Z,-2.23
2023-02-27T08:11:11.634Z,-2.16
2023-02-27T08:21:50.687Z,-2.16
2023-02-27T08:32:05.677Z,-2.14
2023-02-27T08:42:09.867Z,-2.06
2023-02-27T08:52:15.773Z,-2.00
2023-02-27T09:26:08.744Z,-1.96
2023-02-27T09:36:46.789Z,-2.01
2023-02-27T09:46:55.046Z,-2.00
2023-02-27T09:57:06.467Z,-1.97
2023-02-27T10:08:34.767Z,-2.00
2023-02-27T10:18:41.919Z,-1.98
2023-02-27T10:29:34.985Z,-1.97
2023-02-27T10:40:54.001Z,-1.98
2023-02-27T11:02:05.537Z,-1.95
2023-02-27T11:12:38.909Z,-1.95
2023-02-27T11:23:01.576Z,-1.96
2023-02-27T11:33:38.596Z,-1.96
2023-02-27T11:43:51.097Z,-1.95
2023-02-27T11:54:18.135Z,-1.97
2023-02-27T12:04:37.154Z,-2.02
2023-02-27T12:14:59.472Z,-2.01
2023-02-27T12:25:30.549Z,-2.01
2023-02-27T12:36:03.566Z,-2.04
2023-02-27T12:46:56.729Z,-2.04
2023-02-27T12:58:02.423Z,-2.05
2023-02-27T13:08:49.321Z,-2.05
2023-02-27T13:19:15.087Z,-2.10
2023-02-27T13:29:58.917Z,-2.13
2023-02-27T13:39:58.192Z,-2.16
2023-02-27T13:50:20.654Z,-2.17
2023-02-27T14:01:03.239Z,-2.20
2023-02-27T14:11:35.638Z,-2.24
2023-02-27T14:22:38.675Z,-2.25
2023-02-27T14:33:37.479Z,-2.35
2023-02-27T14:43:46.198Z,-2.39
2023-02-27T14:56:14.031Z,-2.42
2023-02-27T15:05:34.856Z,-2.46
2023-02-27T15:15:40.291Z,-2.47
2023-02-27T15:25:46.353Z,-2.49
2023-02-27T15:35:54.875Z,-2.52
2023-02-27T15:45:59.978Z,-2.59
2023-02-27T15:56:17.273Z,-2.62
2023-02-27T16:06:25.292Z,-2.68
2023-02-27T16:16:41.380Z,-2.71
2023-02-27T16:27:21.350Z,-2.80
2023-02-27T16:38:57.698Z,-2.87
2023-02-27T16:49:17.651Z,-2.93
2023-02-27T16:59:56.763Z,-3.00
2023-02-27T17:10:50.427Z,-3.08
2023-02-27T17:21:34.085Z,-3.17
2023-02-27T17:31:40.641Z,-3.27
2023-02-27T17:42:15.986Z,-3.33
2023-02-27T17:52:51.909Z,-3.46
2023-02-27T18:03:55.511Z,-3.62
2023-02-27T18:14:34.745Z,-3.81
2023-02-27T18:24:42.484Z,-3.88
2023-02-27T18:34:50.200Z,-3.98
2023-02-27T18:46:38.916Z,-4.08
2023-02-27T18:56:44.423Z,-4.22
2023-02-27T19:06:58.473Z,-4.27
2023-02-27T19:17:30.543Z,-4.39
2023-02-27T19:39:40.844Z,-4.61
2023-02-27T20:01:03.733Z,-4.73
2023-02-27T20:11:07.583Z,-4.76
2023-02-27T20:21:15.635Z,-4.82
2023-02-27T20:31:22.443Z,-4.91
2023-02-27T20:41:34.782Z,-4.96
2023-02-27T20:51:40.415Z,-5.00
2023-02-27T21:01:51.967Z,-5.02
2023-02-27T21:11:58.765Z,-5.09
2023-02-27T21:22:03.717Z,-5.13
2023-02-27T21:32:12.455Z,-5.16
2023-02-27T21:42:20.412Z,-5.22
2023-02-27T21:52:35.315Z,-5.29
2023-02-27T22:02:52.128Z,-5.40
2023-02-27T22:13:03.014Z,-5.45
2023-02-27T22:23:15.849Z,-5.51
2023-02-27T22:33:41.988Z,-5.62
2023-02-27T22:43:56.298Z,-5.73
2023-02-27T22:54:03.566Z,-5.87
2023-02-27T23:04:19.949Z,-6.01
2023-02-27T23:14:54.804Z,-6.14
2023-02-27T23:25:13.633Z,-6.21
2023-02-27T23:35:41.057Z,-6.28
2023-02-27T23:45:47.071Z,-6.39
2023-02-27T23:56:13.319Z,-6.52
